Time;durP1;ratioP1;P1;durP2;ratioP2;P2;SDS_P1;SDS_P2;PMS_P1;PMS_P2;Temp;Humidity;BMP_temperature;BMP_pressure;BME280_temperature;BME280_humidity;BME280_pressure;Samples;Min_cycle;Max_cycle;Signal;HPM_P1;HPM_P2
2022/10/02 00:02:28;;;;;;;0.60;0.60;;;12.20;99.90;;;;;;5087737;28;20208;-48
2022/10/02 00:05:00;;;;;;;0.80;0.80;;;12.20;99.90;;;;;;5085683;28;20206;-48
2022/10/02 00:07:31;;;;;;;0.50;0.50;;;12.30;99.90;;;;;;5084743;28;20201;-48
2022/10/02 00:10:03;;;;;;;0.40;0.40;;;12.30;99.90;;;;;;5080358;28;20218;-48
2022/10/02 00:12:32;;;;;;;2.23;0.80;;;12.20;99.90;;;;;;5083967;28;20626;-48
2022/10/02 00:15:06;;;;;;;0.90;0.50;;;12.20;99.90;;;;;;5088494;28;20256;-48
2022/10/02 00:17:38;;;;;;;0.70;0.70;;;12.20;99.90;;;;;;5086103;28;20268;-48
2022/10/02 00:20:13;;;;;;;0.80;0.80;;;12.20;99.90;;;;;;5075112;28;20221;-48
2022/10/02 00:22:49;;;;;;;0.57;0.57;;;12.30;99.90;;;;;;5083796;28;20200;-49
2022/10/02 00:25:24;;;;;;;0.67;0.60;;;12.30;99.90;;;;;;5082726;28;20273;-49
2022/10/02 00:28:05;;;;;;;0.90;0.90;;;12.30;99.90;;;;;;5077905;28;20196;-49
2022/10/02 00:30:39;;;;;;;3.30;1.93;;;12.20;99.90;;;;;;5080513;28;20651;-48
2022/10/02 00:33:16;;;;;;;1.53;1.00;;;12.30;99.90;;;;;;5081584;28;20201;-49
2022/10/02 00:35:59;;;;;;;4.80;1.27;;;12.20;99.90;;;;;;5082852;28;20272;-49
2022/10/02 00:38:38;;;;;;;1.07;1.03;;;12.20;99.90;;;;;;5083077;28;20289;-49
2022/10/02 00:41:32;;;;;;;0.73;0.60;;;12.20;99.90;;;;;;5076848;28;20676;-48
2022/10/02 00:44:20;;;;;;;1.43;0.67;;;12.20;99.90;;;;;;5082745;28;20196;-50
2022/10/02 00:46:54;;;;;;;1.13;0.77;;;12.20;99.90;;;;;;5081258;28;20284;-48
2022/10/02 00:49:44;;;;;;;1.00;1.00;;;12.20;99.90;;;;;;5074308;28;20238;-48
2022/10/02 00:52:28;;;;;;;1.73;1.17;;;12.20;99.90;;;;;;5079702;28;20273;-50
2022/10/02 00:55:16;;;;;;;0.83;0.83;;;12.20;99.90;;;;;;5085953;28;20196;-50
2022/10/02 00:58:02;;;;;;;1.57;0.40;;;12.10;99.90;;;;;;5076702;28;20223;-49
2022/10/02 01:00:29;;;;;;;1.03;0.60;;;12.20;99.90;;;;;;5087636;28;20624;-49
2022/10/02 01:03:08;;;;;;;0.33;0.30;;;12.20;99.90;;;;;;5072248;28;20204;-48
2022/10/02 01:05:36;;;;;;;1.43;0.60;;;12.20;99.90;;;;;;5079918;28;20208;-48
2022/10/02 01:08:04;;;;;;;0.53;0.53;;;12.10;99.90;;;;;;5085760;28;20254;-49
2022/10/02 01:10:32;;;;;;;2.93;0.50;;;12.10;99.90;;;;;;5084545;28;20301;-49
2022/10/02 01:13:00;;;;;;;0.33;0.33;;;12.20;99.90;;;;;;5084541;28;20204;-48
2022/10/02 01:15:31;;;;;;;0.40;0.30;;;12.20;99.90;;;;;;5087926;28;20204;-49
2022/10/02 01:18:00;;;;;;;0.43;0.43;;;12.20;99.90;;;;;;5084426;28;20216;-49
2022/10/02 01:20:34;;;;;;;3.20;0.63;;;12.10;99.90;;;;;;5076358;28;20219;-49
2022/10/02 01:23:14;;;;;;;0.50;0.40;;;12.10;99.90;;;;;;5085743;28;20753;-48
2022/10/02 01:25:43;;;;;;;0.83;0.60;;;12.20;99.90;;;;;;5089873;28;20204;-48
2022/10/02 01:28:11;;;;;;;0.90;0.70;;;12.20;99.90;;;;;;5079309;28;20605;-49
2022/10/02 01:30:42;;;;;;;1.27;0.60;;;12.30;99.90;;;;;;5078468;28;20219;-49
2022/10/02 01:33:10;;;;;;;1.10;0.50;;;12.30;99.90;;;;;;5080926;28;20201;-49
2022/10/02 01:35:39;;;;;;;1.70;0.40;;;12.30;99.90;;;;;;5083061;28;20208;-49
2022/10/02 01:38:08;;;;;;;0.30;0.30;;;12.30;99.90;;;;;;5085321;28;20262;-49
2022/10/02 01:40:37;;;;;;;1.13;0.70;;;12.20;99.90;;;;;;5088560;28;20221;-49
2022/10/02 01:43:10;;;;;;;0.50;0.50;;;12.30;99.90;;;;;;5080481;28;20222;-49
2022/10/02 01:45:52;;;;;;;0.83;0.40;;;12.30;99.90;;;;;;5077572;28;20255;-49
2022/10/02 01:48:33;;;;;;;1.23;0.40;;;12.30;99.90;;;;;;5086291;28;20196;-49
2022/10/02 01:51:09;;;;;;;0.33;0.33;;;12.20;99.90;;;;;;5088256;28;20304;-49
2022/10/02 01:53:44;;;;;;;0.50;0.37;;;12.20;99.90;;;;;;5081745;28;20196;-50
2022/10/02 01:56:18;;;;;;;0.50;0.50;;;12.20;99.90;;;;;;5082081;28;20208;-48
2022/10/02 01:58:54;;;;;;;2.50;0.97;;;12.20;99.90;;;;;;5093096;28;20232;-48
2022/10/02 02:01:33;;;;;;;0.90;0.90;;;12.20;99.90;;;;;;5084656;28;20261;-50
2022/10/02 02:04:06;;;;;;;1.07;1.07;;;12.10;99.90;;;;;;5089612;28;20281;-49
2022/10/02 02:06:41;;;;;;;1.13;1.13;;;12.10;99.90;;;;;;5084983;28;20262;-49
2022/10/02 02:09:12;;;;;;;1.13;1.13;;;12.10;99.90;;;;;;5079454;28;20212;-49
2022/10/02 02:11:44;;;;;;;1.60;1.60;;;12.10;99.90;;;;;;5085647;28;20257;-48
2022/10/02 02:14:16;;;;;;;1.63;1.10;;;12.10;99.90;;;;;;5090467;28;20246;-49
2022/10/02 02:16:48;;;;;;;1.40;1.33;;;12.20;99.90;;;;;;5093093;28;20220;-49
2022/10/02 02:19:21;;;;;;;1.17;1.17;;;12.20;99.90;;;;;;5088878;28;20214;-49
2022/10/02 02:21:53;;;;;;;1.67;1.10;;;12.20;99.90;;;;;;5093048;28;20191;-49
2022/10/02 02:24:25;;;;;;;1.03;0.90;;;12.20;99.90;;;;;;5090183;28;20662;-50
2022/10/02 02:26:58;;;;;;;1.27;1.17;;;12.20;99.90;;;;;;5092497;28;20187;-48
2022/10/02 02:29:29;;;;;;;1.60;0.90;;;12.30;99.90;;;;;;5081975;28;20234;-48
2022/10/02 02:31:59;;;;;;;0.70;0.70;;;12.20;99.90;;;;;;5092911;28;20252;-48
2022/10/02 02:34:31;;;;;;;0.70;0.70;;;12.20;99.90;;;;;;5088738;28;20237;-49
2022/10/02 02:37:02;;;;;;;0.60;0.60;;;12.20;99.90;;;;;;5092838;28;21494;-49
2022/10/02 02:39:36;;;;;;;0.70;0.70;;;12.20;99.90;;;;;;5086738;28;20241;-49
2022/10/02 02:42:08;;;;;;;0.50;0.50;;;12.30;99.90;;;;;;5092261;28;20203;-48
2022/10/02 02:44:41;;;;;;;0.40;0.40;;;12.20;99.90;;;;;;5088958;28;20201;-48
2022/10/02 02:47:13;;;;;;;0.40;0.40;;;12.20;99.90;;;;;;5091290;28;20200;-49
2022/10/02 02:49:49;;;;;;;0.60;0.60;;;12.20;99.90;;;;;;5088491;28;20280;-49
2022/10/02 02:52:21;;;;;;;0.50;0.50;;;12.20;99.90;;;;;;5092450;28;20193;-49
2022/10/02 02:54:52;;;;;;;0.50;0.50;;;12.20;99.90;;;;;;5090624;28;20201;-48
2022/10/02 02:57:27;;;;;;;1.47;0.43;;;12.20;99.90;;;;;;5090473;28;20224;-49
2022/10/02 02:59:57;;;;;;;3.07;0.50;;;12.20;99.90;;;;;;5089813;28;20218;-49
2022/10/02 03:02:24;;;;;;;0.50;0.50;;;12.20;99.90;;;;;;5088407;28;20200;-48
2022/10/02 03:04:51;;;;;;;1.10;0.60;;;12.30;99.90;;;;;;5092053;28;20199;-48
2022/10/02 03:07:18;;;;;;;1.50;0.70;;;12.30;99.90;;;;;;5092236;28;20195;-48
2022/10/02 03:09:57;;;;;;;1.07;0.80;;;12.30;99.90;;;;;;5086291;28;20225;-48
2022/10/02 03:12:33;;;;;;;1.00;1.00;;;12.20;99.90;;;;;;5092300;28;20196;-48
2022/10/02 03:15:26;;;;;;;1.43;0.90;;;12.30;99.90;;;;;;5088553;28;20615;-50
2022/10/02 03:18:17;;;;;;;1.50;1.40;;;12.20;99.90;;;;;;5089589;28;20343;-49
2022/10/02 03:20:53;;;;;;;3.03;1.53;;;12.30;99.90;;;;;;5090427;28;20223;-48
2022/10/02 03:23:27;;;;;;;1.50;1.40;;;12.30;99.90;;;;;;5091707;28;20256;-48
2022/10/02 03:26:00;;;;;;;1.63;1.53;;;12.20;99.90;;;;;;5091759;28;20606;-49
2022/10/02 03:28:31;;;;;;;0.90;0.87;;;12.20;99.90;;;;;;5088593;28;20204;-49
2022/10/02 03:31:00;;;;;;;0.70;0.70;;;12.20;99.90;;;;;;5090323;28;20248;-48
2022/10/02 03:33:29;;;;;;;1.17;1.17;;;12.20;99.90;;;;;;5087692;28;20247;-49
2022/10/02 03:35:57;;;;;;;1.20;1.10;;;12.20;99.90;;;;;;5084939;28;20639;-49
2022/10/02 03:38:26;;;;;;;1.00;1.00;;;12.20;99.90;;;;;;5082628;28;20302;-48
2022/10/02 03:40:56;;;;;;;0.90;0.90;;;12.20;99.90;;;;;;5090201;28;20199;-49
2022/10/02 03:43:26;;;;;;;1.10;1.10;;;12.20;99.90;;;;;;5091155;28;20212;-49
2022/10/02 03:45:54;;;;;;;0.77;0.77;;;12.20;99.90;;;;;;5087696;28;20198;-49
2022/10/02 03:48:23;;;;;;;1.50;1.23;;;12.20;99.90;;;;;;5086640;28;20257;-48
2022/10/02 03:50:50;;;;;;;1.40;1.40;;;12.20;99.90;;;;;;5082613;28;20225;-48
2022/10/02 03:53:20;;;;;;;4.37;0.93;;;12.20;99.90;;;;;;5088626;28;20285;-48
2022/10/02 03:55:52;;;;;;;0.93;0.90;;;12.30;99.90;;;;;;5089285;28;20202;-48
2022/10/02 03:58:19;;;;;;;0.70;0.67;;;12.30;99.90;;;;;;5085499;28;20228;-49
2022/10/02 04:00:57;;;;;;;1.07;0.93;;;12.40;99.90;;;;;;5085974;28;20227;-49
2022/10/02 04:03:32;;;;;;;0.70;0.70;;;12.30;99.90;;;;;;5087008;28;20300;-48
2022/10/02 04:06:03;;;;;;;1.60;0.87;;;12.30;99.90;;;;;;5088377;28;20203;-48
2022/10/02 04:08:38;;;;;;;0.70;0.70;;;12.30;99.90;;;;;;5084161;28;20558;-49
2022/10/02 04:11:12;;;;;;;0.70;0.70;;;12.20;99.90;;;;;;5087226;28;20226;-49
2022/10/02 04:13:42;;;;;;;1.20;0.87;;;12.30;99.90;;;;;;5090958;28;20192;-48
2022/10/02 04:16:15;;;;;;;2.00;1.20;;;12.20;99.90;;;;;;5089123;28;20228;-48
2022/10/02 04:18:52;;;;;;;1.30;1.30;;;12.20;99.90;;;;;;5088544;28;20272;-49
2022/10/02 04:21:29;;;;;;;1.53;1.43;;;12.30;99.90;;;;;;5090967;28;20257;-48
2022/10/02 04:24:02;;;;;;;1.67;1.27;;;12.30;99.90;;;;;;5081564;28;20238;-49
2022/10/02 04:26:34;;;;;;;1.40;1.27;;;12.30;99.90;;;;;;5087337;28;20581;-48
2022/10/02 04:29:08;;;;;;;1.40;1.40;;;12.30;99.90;;;;;;5088425;28;20212;-49
2022/10/02 04:31:35;;;;;;;1.07;1.00;;;12.30;99.90;;;;;;5085817;28;20213;-49
2022/10/02 04:34:13;;;;;;;1.00;1.00;;;12.30;99.90;;;;;;5087465;28;20237;-49
2022/10/02 04:36:52;;;;;;;1.20;1.20;;;12.30;99.90;;;;;;5088065;28;20233;-49
2022/10/02 04:39:46;;;;;;;1.10;1.10;;;12.30;99.90;;;;;;5090116;28;20222;-49
2022/10/02 04:42:30;;;;;;;1.20;1.20;;;12.30;99.90;;;;;;5079893;28;20200;-48
2022/10/02 04:45:12;;;;;;;1.30;1.30;;;12.30;99.90;;;;;;5086419;28;20193;-49
2022/10/02 04:48:36;;;;;;;1.47;1.47;;;12.30;99.90;;;;;;5087702;28;20611;-49
2022/10/02 04:51:15;;;;;;;1.33;1.23;;;12.20;99.90;;;;;;5009660;28;20206;-50
2022/10/02 04:53:59;;;;;;;2.23;1.33;;;12.20;99.90;;;;;;5083543;28;20680;-49
2022/10/02 04:56:59;;;;;;;1.60;1.50;;;12.10;99.90;;;;;;5086756;28;20205;-49
2022/10/02 04:59:38;;;;;;;1.53;1.27;;;12.10;99.90;;;;;;5048698;28;20234;-49
2022/10/02 05:02:16;;;;;;;3.63;3.33;;;12.10;99.90;;;;;;5085298;28;20210;-47
2022/10/02 05:05:08;;;;;;;1.37;1.37;;;12.10;99.90;;;;;;5091535;28;20612;-48
2022/10/02 05:07:55;;;;;;;2.10;1.77;;;12.10;99.90;;;;;;5082260;28;20204;-52
2022/10/02 05:10:45;;;;;;;1.70;0.97;;;12.10;99.90;;;;;;5078555;28;20221;-49
2022/10/02 05:13:26;;;;;;;1.50;1.00;;;12.10;99.90;;;;;;5077218;28;20444;-50
2022/10/02 05:16:05;;;;;;;0.83;0.83;;;12.20;99.90;;;;;;5078360;28;20205;-49
2022/10/02 05:18:48;;;;;;;1.43;1.00;;;12.10;99.90;;;;;;5079784;28;20219;-48
2022/10/02 05:21:32;;;;;;;2.10;1.00;;;12.10;99.90;;;;;;5088416;28;20200;-49
2022/10/02 05:24:17;;;;;;;1.80;0.80;;;12.20;99.90;;;;;;5089438;28;20326;-48
2022/10/02 05:27:03;;;;;;;0.80;0.80;;;12.20;99.90;;;;;;5092024;28;20401;-48
2022/10/02 05:30:03;;;;;;;0.90;0.90;;;12.20;99.90;;;;;;5090934;28;20593;-49
2022/10/02 05:32:54;;;;;;;0.53;0.50;;;12.30;99.90;;;;;;5084204;28;20314;-49
2022/10/02 05:35:37;;;;;;;1.07;1.03;;;12.30;99.90;;;;;;5082820;28;20578;-49
2022/10/02 05:38:13;;;;;;;1.33;1.30;;;12.30;99.90;;;;;;5081996;28;20230;-49
2022/10/02 05:40:49;;;;;;;1.07;1.07;;;12.20;99.90;;;;;;5095169;28;20730;-49
2022/10/02 05:43:27;;;;;;;1.67;1.50;;;12.20;99.90;;;;;;5088382;28;20203;-49
2022/10/02 05:45:58;;;;;;;1.20;1.10;;;12.20;99.90;;;;;;5091581;28;20257;-50
2022/10/02 05:48:30;;;;;;;1.43;1.03;;;12.20;99.90;;;;;;5078626;28;20212;-48
2022/10/02 05:51:02;;;;;;;1.17;0.93;;;12.20;99.90;;;;;;5084433;28;20673;-49
2022/10/02 05:53:37;;;;;;;0.93;0.70;;;12.20;99.90;;;;;;5080122;28;20223;-49
2022/10/02 05:56:13;;;;;;;1.20;1.00;;;12.30;99.90;;;;;;5074662;28;20736;-49
2022/10/02 05:58:49;;;;;;;0.67;0.67;;;12.30;99.90;;;;;;5078178;28;20224;-49
2022/10/02 06:01:21;;;;;;;0.77;0.77;;;12.40;99.90;;;;;;5094991;28;20282;-49
2022/10/02 06:03:54;;;;;;;0.73;0.73;;;12.50;99.90;;;;;;5089103;28;20207;-49
2022/10/02 06:06:30;;;;;;;0.60;0.60;;;12.50;99.90;;;;;;5088953;28;20211;-49
2022/10/02 06:09:03;;;;;;;0.50;0.50;;;12.60;99.90;;;;;;5081721;28;20234;-48
2022/10/02 06:11:36;;;;;;;1.57;1.37;;;12.50;99.90;;;;;;5094680;28;20287;-49
2022/10/02 06:14:09;;;;;;;2.60;1.17;;;12.50;99.90;;;;;;5090520;28;20203;-48
2022/10/02 06:16:43;;;;;;;0.93;0.93;;;12.50;99.90;;;;;;5089248;28;20760;-53
2022/10/02 06:19:15;;;;;;;1.33;1.20;;;12.50;99.90;;;;;;5082156;28;20222;-48
2022/10/02 06:21:48;;;;;;;0.90;0.90;;;12.50;99.90;;;;;;5081195;28;20707;-48
2022/10/02 06:24:21;;;;;;;1.60;1.53;;;12.50;99.90;;;;;;5084049;28;20828;-49
2022/10/02 06:26:55;;;;;;;1.90;1.80;;;12.50;99.90;;;;;;5086228;28;20619;-48
2022/10/02 06:29:28;;;;;;;2.13;2.03;;;12.60;99.90;;;;;;5087888;28;20223;-49
2022/10/02 06:32:11;;;;;;;3.70;3.50;;;12.60;99.90;;;;;;5090573;28;20678;-49
2022/10/02 06:34:39;;;;;;;3.00;2.80;;;12.60;99.90;;;;;;5086870;28;20196;-48
2022/10/02 06:37:32;;;;;;;4.17;3.87;;;12.70;99.90;;;;;;5086411;28;20207;-49
2022/10/02 06:40:29;;;;;;;3.33;3.17;;;12.70;99.90;;;;;;5072478;28;20243;-48
2022/10/02 06:43:04;;;;;;;1.50;1.50;;;12.70;99.90;;;;;;5088433;28;20200;-49
2022/10/02 06:45:39;;;;;;;2.07;2.00;;;12.70;99.90;;;;;;5089006;28;20199;-48
2022/10/02 06:48:25;;;;;;;1.07;1.07;;;12.70;99.90;;;;;;5083553;28;20198;-49
2022/10/02 06:51:00;;;;;;;5.67;1.40;;;12.70;99.90;;;;;;5081540;28;20201;-48
2022/10/02 06:53:45;;;;;;;1.40;1.07;;;12.70;99.90;;;;;;5082812;28;20287;-49
2022/10/02 06:56:30;;;;;;;4.13;3.93;;;12.70;99.90;;;;;;5082467;28;20201;-49
2022/10/02 06:59:12;;;;;;;4.43;4.13;;;12.70;99.90;;;;;;5093118;28;20231;-52
2022/10/02 07:01:52;;;;;;;4.13;3.17;;;12.70;99.90;;;;;;5083457;28;20286;-49
2022/10/02 07:05:00;;;;;;;3.93;3.33;;;12.80;99.90;;;;;;5085720;28;20204;-48
2022/10/02 07:07:40;;;;;;;13.33;10.53;;;12.90;99.90;;;;;;5038728;28;20199;-49
2022/10/02 07:10:18;;;;;;;4.87;4.57;;;13.00;99.90;;;;;;5079941;28;20634;-48
2022/10/02 07:13:08;;;;;;;4.30;4.00;;;13.10;99.90;;;;;;5081430;28;20193;-49
2022/10/02 07:16:07;;;;;;;4.60;4.30;;;13.20;99.90;;;;;;5093246;28;20201;-48
2022/10/02 07:18:49;;;;;;;3.97;3.67;;;13.30;99.90;;;;;;5089827;28;20255;-48
2022/10/02 07:21:24;;;;;;;3.03;2.83;;;13.40;99.90;;;;;;5080989;28;20203;-49
2022/10/02 07:23:59;;;;;;;4.37;3.27;;;13.40;99.90;;;;;;5092560;28;20192;-48
2022/10/02 07:26:46;;;;;;;2.30;1.20;;;13.50;99.90;;;;;;5088341;28;20559;-49
2022/10/02 07:29:25;;;;;;;2.67;1.10;;;13.60;99.90;;;;;;5073593;28;20278;-49
2022/10/02 07:32:19;;;;;;;2.00;0.90;;;13.70;99.90;;;;;;5082001;28;20209;-49
2022/10/02 07:34:59;;;;;;;1.20;1.20;;;13.70;99.90;;;;;;5077226;28;20736;-50
2022/10/02 07:37:39;;;;;;;1.63;1.33;;;13.80;99.90;;;;;;5079554;28;20296;-49
2022/10/02 07:40:27;;;;;;;2.40;1.33;;;13.80;99.90;;;;;;5083553;28;20228;-48
2022/10/02 07:43:12;;;;;;;3.47;2.50;;;13.80;99.90;;;;;;5091787;28;20204;-49
2022/10/02 07:45:41;;;;;;;2.73;1.53;;;13.90;99.90;;;;;;5090524;28;20721;-49
2022/10/02 07:48:41;;;;;;;2.50;2.30;;;13.80;99.90;;;;;;5072575;28;20763;-48
2022/10/02 07:54:19;;;;;;;2.63;2.47;;;13.80;99.90;;;;;;5087829;28;20261;-48
2022/10/02 07:56:48;;;;;;;2.13;2.03;;;13.90;99.90;;;;;;5089197;28;20713;-49
2022/10/02 07:59:18;;;;;;;1.90;1.80;;;14.00;99.90;;;;;;5092219;28;20213;-49
2022/10/02 08:01:47;;;;;;;3.13;2.37;;;14.10;99.90;;;;;;5092644;28;20260;-49
2022/10/02 08:04:18;;;;;;;1.53;1.43;;;14.20;99.90;;;;;;5075955;28;20193;-48
2022/10/02 08:06:47;;;;;;;1.23;1.10;;;14.20;99.90;;;;;;5086964;28;20287;-49
2022/10/02 08:09:19;;;;;;;1.97;1.67;;;14.20;99.90;;;;;;5080995;28;20221;-49
2022/10/02 08:11:53;;;;;;;1.97;1.87;;;14.20;99.90;;;;;;5073973;28;20201;-49
2022/10/02 08:14:24;;;;;;;1.47;1.47;;;14.30;99.90;;;;;;5092418;28;20344;-48
2022/10/02 08:16:52;;;;;;;1.63;1.53;;;14.20;99.90;;;;;;5089732;28;20201;-49
2022/10/02 08:19:26;;;;;;;2.50;2.40;;;14.30;99.90;;;;;;5086426;28;20232;-48
2022/10/02 08:21:59;;;;;;;1.17;1.07;;;14.40;99.90;;;;;;5091968;28;20228;-48
2022/10/02 08:24:32;;;;;;;1.43;1.33;;;14.20;99.90;;;;;;5088589;28;20555;-48
2022/10/02 08:27:04;;;;;;;1.20;1.10;;;14.50;99.90;;;;;;5088555;28;20196;-48
2022/10/02 08:29:39;;;;;;;2.17;1.30;;;14.50;99.90;;;;;;5083626;28;20271;-49
2022/10/02 08:32:10;;;;;;;1.07;1.07;;;14.40;99.90;;;;;;5084598;28;20196;-48
2022/10/02 08:34:39;;;;;;;1.30;1.20;;;14.40;99.90;;;;;;5092144;28;20660;-48
2022/10/02 08:37:28;;;;;;;0.80;0.80;;;14.40;99.90;;;;;;5092290;28;20299;-49
2022/10/02 08:40:31;;;;;;;1.30;1.27;;;14.40;99.90;;;;;;5089292;28;20220;-49
2022/10/02 08:43:43;;;;;;;1.23;1.23;;;14.50;99.90;;;;;;5079581;28;20260;-48
2022/10/02 08:46:57;;;;;;;0.90;0.90;;;14.60;99.90;;;;;;5085248;28;20282;-49
2022/10/02 08:50:05;;;;;;;1.03;1.03;;;14.80;99.90;;;;;;5090499;28;20250;-48
2022/10/02 08:53:04;;;;;;;2.00;0.70;;;15.30;99.90;;;;;;5089725;28;20196;-49
2022/10/02 08:55:49;;;;;;;0.80;0.80;;;15.50;99.90;;;;;;5092022;28;20339;-49
2022/10/02 08:58:52;;;;;;;0.90;0.80;;;15.60;99.90;;;;;;5087218;28;20196;-50
2022/10/02 09:01:41;;;;;;;0.70;0.70;;;15.70;99.90;;;;;;5081913;28;20250;-48
2022/10/02 09:04:30;;;;;;;0.90;0.90;;;15.60;99.90;;;;;;5071506;28;20201;-48
2022/10/02 09:07:42;;;;;;;1.90;0.90;;;15.50;99.90;;;;;;5081200;28;20690;-48
2022/10/02 09:10:50;;;;;;;0.80;0.73;;;15.30;99.90;;;;;;5080515;28;20265;-49
2022/10/02 09:13:53;;;;;;;1.30;1.17;;;15.20;99.90;;;;;;5084426;28;20727;-49
2022/10/02 09:16:29;;;;;;;0.70;0.70;;;15.10;99.90;;;;;;5074797;28;20575;-48
2022/10/02 09:19:01;;;;;;;1.77;1.10;;;15.10;99.90;;;;;;5088319;28;20318;-49
2022/10/02 09:21:50;;;;;;;3.33;3.00;;;15.20;99.90;;;;;;5071959;28;20228;-47
2022/10/02 09:24:50;;;;;;;3.60;3.40;;;15.20;99.90;;;;;;5086741;28;20204;-48
2022/10/02 09:27:53;;;;;;;4.77;4.30;;;15.50;99.90;;;;;;5073100;28;20246;-48
2022/10/02 09:31:01;;;;;;;7.57;5.13;;;15.80;99.90;;;;;;5030080;28;20224;-49
2022/10/02 09:34:03;;;;;;;2.00;1.90;;;16.00;99.90;;;;;;5080109;28;20204;-48
2022/10/02 09:37:06;;;;;;;2.13;1.13;;;16.20;99.90;;;;;;5071198;28;20291;-48
2022/10/02 09:39:57;;;;;;;0.60;0.60;;;16.40;99.90;;;;;;5070622;28;20228;-47
2022/10/02 09:42:51;;;;;;;0.87;0.60;;;16.50;99.90;;;;;;5080176;28;20201;-48
2022/10/02 09:45:50;;;;;;;0.67;0.57;;;17.00;99.90;;;;;;5083040;28;20665;-48
2022/10/02 09:48:58;;;;;;;0.50;0.50;;;18.00;99.90;;;;;;5070983;28;20203;-49
2022/10/02 09:52:03;;;;;;;4.03;1.30;;;18.40;99.90;;;;;;5069401;28;20245;-49
2022/10/02 09:55:18;;;;;;;0.30;0.30;;;18.10;99.90;;;;;;5081289;28;20245;-50
2022/10/02 09:58:15;;;;;;;0.60;0.60;;;17.70;99.90;;;;;;5048489;28;20207;-49
2022/10/02 10:01:06;;;;;;;0.87;0.50;;;17.30;99.90;;;;;;5090707;28;20224;-48
2022/10/02 10:04:13;;;;;;;0.50;0.50;;;17.10;99.90;;;;;;5080818;28;20251;-48
2022/10/02 10:07:17;;;;;;;0.57;0.30;;;16.80;99.90;;;;;;5089697;28;20201;-49
2022/10/02 10:10:24;;;;;;;0.93;0.30;;;16.90;99.90;;;;;;5094727;28;20212;-48
2022/10/02 10:13:31;;;;;;;0.30;0.30;;;16.80;99.90;;;;;;5065389;28;20252;-49
2022/10/02 10:16:33;;;;;;;1.70;0.43;;;16.90;99.90;;;;;;5053361;28;20287;-49
2022/10/02 10:19:36;;;;;;;0.40;0.40;;;17.20;99.90;;;;;;5081625;28;20639;-48
2022/10/02 10:22:30;;;;;;;0.87;0.40;;;17.50;99.90;;;;;;5073131;28;20209;-49
2022/10/02 10:25:21;;;;;;;2.03;0.57;;;17.90;99.90;;;;;;5068942;28;20208;-49
2022/10/02 10:28:24;;;;;;;0.83;0.83;;;18.00;99.90;;;;;;5091006;28;20200;-49
2022/10/02 10:31:28;;;;;;;0.50;0.37;;;18.30;99.90;;;;;;5085468;28;20565;-48
2022/10/02 10:34:45;;;;;;;0.50;0.50;;;18.30;99.90;;;;;;5088751;28;20203;-48
2022/10/02 10:40:37;;;;;;;1.90;1.00;;;17.90;99.90;;;;;;5089738;28;20231;-47
2022/10/02 10:43:52;;;;;;;1.00;1.00;;;17.40;99.90;;;;;;5092134;28;20276;-48
2022/10/02 10:46:57;;;;;;;2.33;0.80;;;17.20;99.90;;;;;;5091043;28;20701;-48
2022/10/02 10:50:01;;;;;;;1.17;1.07;;;17.00;99.90;;;;;;5087061;28;20247;-48
2022/10/02 10:52:44;;;;;;;1.27;1.00;;;16.90;99.90;;;;;;5086843;28;20204;-48
2022/10/02 10:55:21;;;;;;;1.00;1.00;;;16.90;99.90;;;;;;5085047;28;20193;-48
2022/10/02 10:58:07;;;;;;;0.80;0.80;;;16.90;99.90;;;;;;5086509;28;20674;-48
2022/10/02 11:00:47;;;;;;;4.90;0.90;;;16.90;99.90;;;;;;5090189;28;20231;-48
2022/10/02 11:03:44;;;;;;;0.80;0.80;;;16.90;99.90;;;;;;5080787;28;20690;-47
2022/10/02 11:06:25;;;;;;;1.40;1.30;;;17.00;99.90;;;;;;5076301;28;20565;-48
2022/10/02 11:09:29;;;;;;;0.77;0.77;;;16.90;99.90;;;;;;5084606;28;20613;-48
2022/10/02 11:12:15;;;;;;;1.00;1.00;;;16.90;99.90;;;;;;5083358;28;20212;-47
2022/10/02 11:14:52;;;;;;;1.13;1.00;;;16.90;99.90;;;;;;5080250;28;20235;-49
2022/10/02 11:17:47;;;;;;;1.27;0.87;;;16.90;99.90;;;;;;5087575;28;20245;-49
2022/10/02 11:20:31;;;;;;;2.23;1.60;;;16.90;99.90;;;;;;5073247;28;20621;-48
2022/10/02 11:23:43;;;;;;;0.73;0.73;;;16.90;99.90;;;;;;5091799;28;20208;-48
2022/10/02 11:26:34;;;;;;;1.03;1.03;;;16.80;99.90;;;;;;5003889;28;20325;-47
2022/10/02 11:29:21;;;;;;;1.47;1.37;;;16.80;99.90;;;;;;5076451;28;20359;-47
2022/10/02 11:32:08;;;;;;;0.73;0.73;;;16.70;99.90;;;;;;5087766;28;20211;-48
2022/10/02 11:34:52;;;;;;;3.17;0.80;;;16.70;99.90;;;;;;5088170;28;20201;-48
2022/10/02 11:37:44;;;;;;;0.73;0.70;;;16.80;99.90;;;;;;5084861;28;20863;-48
2022/10/02 11:40:59;;;;;;;1.37;0.60;;;16.50;99.90;;;;;;5089935;28;20216;-48
2022/10/02 11:43:51;;;;;;;1.10;1.00;;;16.40;99.90;;;;;;5024353;28;20264;-49
2022/10/02 11:46:39;;;;;;;1.47;0.70;;;16.00;99.90;;;;;;5027951;28;20202;-49
2022/10/02 11:49:25;;;;;;;3.40;0.60;;;16.00;99.90;;;;;;5071694;28;20301;-47
2022/10/02 11:52:14;;;;;;;6.43;0.90;;;15.90;99.90;;;;;;5088361;28;20280;-48
2022/10/02 11:54:53;;;;;;;2.13;0.77;;;15.80;99.90;;;;;;5083662;28;20666;-47
2022/10/02 11:57:34;;;;;;;1.53;1.43;;;15.90;99.90;;;;;;5075569;28;20205;-48
2022/10/02 12:00:17;;;;;;;0.67;0.67;;;16.00;99.90;;;;;;5090836;28;20861;-49
2022/10/02 12:02:52;;;;;;;1.90;1.80;;;16.10;99.90;;;;;;5081579;28;20205;-48
2022/10/02 12:05:41;;;;;;;1.27;1.17;;;16.20;99.90;;;;;;5079845;28;20197;-48
2022/10/02 12:08:18;;;;;;;1.27;1.27;;;16.40;99.90;;;;;;5089996;28;20201;-48
2022/10/02 12:10:54;;;;;;;1.10;1.10;;;16.30;99.90;;;;;;5087254;28;20245;-48
2022/10/02 12:13:48;;;;;;;0.90;0.90;;;16.40;99.90;;;;;;5090803;28;20204;-47
2022/10/02 12:16:26;;;;;;;1.20;1.10;;;16.50;99.90;;;;;;5077750;28;20204;-49
2022/10/02 12:19:11;;;;;;;1.67;1.60;;;16.40;99.90;;;;;;5087604;28;20273;-49
2022/10/02 12:27:49;;;;;;;2.03;1.50;;;16.30;99.90;;;;;;5085098;28;20227;-49
2022/10/02 12:30:20;;;;;;;0.90;0.90;;;16.40;99.90;;;;;;5088626;28;20300;-49
2022/10/02 12:33:00;;;;;;;2.73;2.37;;;16.50;99.90;;;;;;5088763;28;20193;-48
2022/10/02 12:35:40;;;;;;;3.47;1.50;;;16.60;99.90;;;;;;5087855;28;20258;-47
2022/10/02 12:38:18;;;;;;;1.20;1.20;;;16.60;99.90;;;;;;5085776;28;20200;-48
2022/10/02 12:40:56;;;;;;;0.80;0.80;;;16.60;99.90;;;;;;5087395;28;20296;-48
2022/10/02 12:44:06;;;;;;;1.70;1.57;;;16.60;99.90;;;;;;5087569;28;20241;-48
2022/10/02 12:47:05;;;;;;;1.07;0.93;;;16.70;99.90;;;;;;5084681;28;20547;-49
2022/10/02 12:49:44;;;;;;;1.00;1.00;;;16.80;99.90;;;;;;5084896;28;20794;-48
2022/10/02 12:52:44;;;;;;;1.33;1.17;;;17.00;99.90;;;;;;5087160;28;20207;-52
2022/10/02 12:55:54;;;;;;;0.90;0.90;;;17.20;99.90;;;;;;5055186;28;20828;-48
2022/10/02 12:58:26;;;;;;;0.60;0.60;;;17.20;99.90;;;;;;5073604;28;20209;-48
2022/10/02 13:01:39;;;;;;;3.03;1.47;;;17.30;99.90;;;;;;5081118;28;20216;-49
2022/10/02 13:04:45;;;;;;;0.50;0.50;;;17.30;99.90;;;;;;5037747;28;20202;-49
2022/10/02 13:07:58;;;;;;;0.50;0.50;;;17.30;99.90;;;;;;5080401;28;20250;-50
2022/10/02 13:10:29;;;;;;;0.50;0.50;;;17.40;99.90;;;;;;5086565;28;20575;-47
2022/10/02 13:13:10;;;;;;;0.50;0.50;;;17.50;99.90;;;;;;5088297;28;21050;-48
2022/10/02 13:15:46;;;;;;;0.50;0.50;;;17.70;99.90;;;;;;5085299;28;20619;-47
2022/10/02 13:18:42;;;;;;;0.53;0.53;;;17.90;99.90;;;;;;5085748;28;20200;-49
2022/10/02 13:21:17;;;;;;;0.50;0.50;;;18.20;99.90;;;;;;5087100;28;20220;-49
2022/10/02 13:23:53;;;;;;;1.00;0.40;;;18.40;99.90;;;;;;5080382;28;20736;-49
2022/10/02 13:26:33;;;;;;;0.40;0.40;;;18.60;99.90;;;;;;5088046;28;20295;-47
2022/10/02 13:29:24;;;;;;;1.50;0.30;;;18.60;99.90;;;;;;5089676;28;20216;-48
2022/10/02 13:32:14;;;;;;;0.20;0.20;;;18.60;99.90;;;;;;5084712;28;20616;-47
2022/10/02 13:34:57;;;;;;;0.20;0.20;;;18.60;99.90;;;;;;5089991;28;20201;-47
2022/10/02 13:37:37;;;;;;;0.30;0.30;;;18.50;99.90;;;;;;5086889;28;20204;-48
2022/10/02 13:40:19;;;;;;;0.20;0.20;;;18.50;99.90;;;;;;5091557;28;20220;-48
2022/10/02 13:43:04;;;;;;;0.33;0.20;;;18.30;99.90;;;;;;5090659;28;20205;-47
2022/10/02 13:45:38;;;;;;;0.20;0.20;;;18.30;99.90;;;;;;5093778;28;20250;-48
2022/10/02 13:48:17;;;;;;;0.10;0.10;;;18.30;99.90;;;;;;5083969;28;20285;-47
2022/10/02 13:50:57;;;;;;;0.53;0.20;;;18.30;99.90;;;;;;5087961;28;20219;-48
2022/10/02 13:53:39;;;;;;;0.50;0.10;;;18.40;99.90;;;;;;5086556;28;20211;-48
2022/10/02 13:56:16;;;;;;;0.20;0.20;;;18.50;99.90;;;;;;5090464;28;20200;-50
2022/10/02 13:59:07;;;;;;;0.20;0.20;;;18.50;99.90;;;;;;5089324;28;20601;-48
2022/10/02 14:01:46;;;;;;;0.97;0.10;;;18.60;99.90;;;;;;5087849;28;20230;-48
2022/10/02 14:04:34;;;;;;;1.30;0.03;;;18.60;99.90;;;;;;5089236;28;20249;-49
2022/10/02 14:07:12;;;;;;;0.10;0.10;;;18.50;99.90;;;;;;5091568;28;20275;-49
2022/10/02 14:09:51;;;;;;;0.30;0.30;;;18.50;99.90;;;;;;5092420;28;20228;-48
2022/10/02 14:12:28;;;;;;;0.57;0.30;;;18.50;99.90;;;;;;5091948;28;20201;-48
2022/10/02 14:15:12;;;;;;;0.33;0.20;;;18.60;99.90;;;;;;5089170;28;20204;-48
2022/10/02 14:17:52;;;;;;;0.20;0.20;;;18.60;99.90;;;;;;5078563;28;20202;-48